Sulaire — 2BUC5 — position and weather

sailwx.info

Track history (hours):
 
Tides and Currents Weather Stations Pressure Air Temp Water Temp Dewpoint Dewpoint Depression Visibility Wind Speed Wind Dir Waves Ship Positions

Sulaire

Last reported at 2018-Mar-28 13:34 UTC. Time now 2018-Apr-22 22:11 UTC.
Position N 38°55' E 001°31'.
Warning: this ship's position is 25 days out of date.

Length 12 m.

Type: Sailing vessel. MMSI: 235069364.

Date/timePositionNaut miles runAvg speedWind from/ knotsBaromVisibWave heightAir tempDewpointWater temp
2018-Mar-28 13:34N 38°55' E 001°31'1 6.1
2018-Mar-28 13:28N 38°54' E 001°30'3 5.8
2018-Mar-28 13:00N 38°52' E 001°28'2 3.3
2018-Mar-28 12:30N 38°51' E 001°27'104 5.2
2018-Mar-27 16:45N 38°01' W 000°29'2 6.4
2018-Mar-27 16:30N 37°60' W 000°30'4 7.1
2018-Mar-27 15:58N 37°56' W 000°31'3 6.9
2018-Mar-27 15:30N 37°53' W 000°33'4 6.7
2018-Mar-27 14:53N 37°49' W 000°35'3 5.8
2018-Mar-27 14:26N 37°47' W 000°37'3 6.2
2018-Mar-27 13:59N 37°44' W 000°38'3 6.1
2018-Mar-27 13:30N 37°42' W 000°39'3 5.2
2018-Mar-27 12:57N 37°39' W 000°40'4 5.0
2018-Mar-27 12:05N 37°35' W 000°43'1 4.3
2018-Mar-27 11:45N 37°34' W 000°44'2 4.4
2018-Mar-27 11:20N 37°34' W 000°47'  
Track history (hours):
 
Tides and Currents Weather Stations Pressure Air Temp Water Temp Dewpoint Dewpoint Depression Visibility Wind Speed Wind Dir Waves Ship Positions

Sulaire

Last reported at 2018-Mar-28 13:34 UTC. Time now 2018-Apr-22 22:11 UTC.
Position N 38°55' E 001°31'.
Warning: this ship's position is 25 days out of date.

Length 12 m.

Type: Sailing vessel. MMSI: 235069364.

Date/timePositionNaut miles runAvg speedWind from/ knotsBaromVisibWave heightAir tempDewpointWater temp
2018-Mar-28 13:34N 38°55' E 001°31'1 6.1
2018-Mar-28 13:28N 38°54' E 001°30'3 5.8
2018-Mar-28 13:00N 38°52' E 001°28'2 3.3
2018-Mar-28 12:30N 38°51' E 001°27'104 5.2
2018-Mar-27 16:45N 38°01' W 000°29'2 6.4
2018-Mar-27 16:30N 37°60' W 000°30'4 7.1
2018-Mar-27 15:58N 37°56' W 000°31'3 6.9
2018-Mar-27 15:30N 37°53' W 000°33'4 6.7
2018-Mar-27 14:53N 37°49' W 000°35'3 5.8
2018-Mar-27 14:26N 37°47' W 000°37'3 6.2
2018-Mar-27 13:59N 37°44' W 000°38'3 6.1
2018-Mar-27 13:30N 37°42' W 000°39'3 5.2
2018-Mar-27 12:57N 37°39' W 000°40'4 5.0
2018-Mar-27 12:05N 37°35' W 000°43'1 4.3
2018-Mar-27 11:45N 37°34' W 000°44'2 4.4
2018-Mar-27 11:20N 37°34' W 000°47'  

Dump ship's entire track history